Time;durP1;ratioP1;P1;durP2;ratioP2;P2;SDS_P1;SDS_P2;PMS_P1;PMS_P2;Temp;Humidity;BMP_temperature;BMP_pressure;BME280_temperature;BME280_humidity;BME280_pressure;Samples;Min_cycle;Max_cycle;Signal;HPM_P1;HPM_P2
2022/12/14 00:01:30;;;;;;;;;;;;;;;-1.45;60.06;99665.75;4390256;32;33973;-85
2022/12/14 00:03:59;;;;;;;;;;;;;;;-1.16;59.53;99663.22;4391103;32;33770;-85
2022/12/14 00:06:31;;;;;;;;;;;;;;;-1.16;60.19;99652.84;4389538;32;33073;-85
2022/12/14 00:09:00;;;;;;;;;;;;;;;-1.01;60.47;99649.41;4390225;32;33192;-85
2022/12/14 00:11:29;;;;;;;;;;;;;;;-1.19;63.11;99650.25;4389007;32;34244;-85
2022/12/14 00:13:57;;;;;;;;;;;;;;;-1.05;63.09;99650.25;4390922;32;33706;-87
2022/12/14 00:16:27;;;;;;;;;;;;;;;-0.65;62.28;99639.91;4384298;32;227798;-85
2022/12/14 00:18:55;;;;;;;;;;;;;;;-0.77;62.92;99639.03;4390089;32;33179;-85
2022/12/14 00:21:23;;;;;;;;;;;;;;;-0.87;63.46;99639.91;4379739;32;34354;-85
2022/12/14 00:23:51;;;;;;;;;;;;;;;-0.44;62.61;99642.44;4405364;32;33889;-85
2022/12/14 00:26:20;;;;;;;;;;;;;;;-0.49;62.94;99644.19;4398978;32;32641;-86
2022/12/14 00:28:49;;;;;;;;;;;;;;;-0.41;62.70;99641.59;4388659;32;32860;-85
2022/12/14 00:31:17;;;;;;;;;;;;;;;-0.44;62.92;99650.22;4398578;32;32749;-86
2022/12/14 00:33:46;;;;;;;;;;;;;;;-0.12;61.99;99657.09;4402289;32;34756;-85
2022/12/14 00:36:14;;;;;;;;;;;;;;;-0.18;62.35;99647.59;4417209;32;33259;-85
2022/12/14 00:38:42;;;;;;;;;;;;;;;-0.19;62.53;99642.37;4384922;32;34471;-85
2022/12/14 00:41:10;;;;;;;;;;;;;;;-0.06;62.16;99651.88;4396966;32;34959;-85
2022/12/14 00:43:38;;;;;;;;;;;;;;;-0.26;62.66;99641.56;4412668;32;33416;-85
2022/12/14 00:46:06;;;;;;;;;;;;;;;-0.49;63.03;99641.59;4385340;32;33199;-86
2022/12/14 00:48:34;;;;;;;;;;;;;;;-0.56;63.99;99651.13;4397473;32;33774;-84
2022/12/14 00:51:02;;;;;;;;;;;;;;;-0.91;65.42;99656.31;4396389;32;33511;-84
2022/12/14 00:53:30;;;;;;;;;;;;;;;-0.57;63.84;99662.38;4397611;32;33575;-84
2022/12/14 00:56:02;;;;;;;;;;;;;;;-0.39;63.62;99664.06;4398072;32;32949;-84
2022/12/14 00:58:30;;;;;;;;;;;;;;;-0.38;63.34;99660.63;4393439;32;34121;-84
2022/12/14 01:01:02;;;;;;;;;;;;;;;-0.45;63.59;99666.66;4400474;32;34258;-84
2022/12/14 01:03:30;;;;;;;;;;;;;;;-0.12;62.71;99662.28;4399507;32;35085;-85
2022/12/14 01:05:59;;;;;;;;;;;;;;;-0.50;64.03;99665.81;4402111;32;33557;-86
2022/12/14 01:08:33;;;;;;;;;;;;;;;-0.42;63.73;99658.91;4400706;32;32928;-86
2022/12/14 01:11:04;;;;;;;;;;;;;;;-0.36;63.46;99653.69;4401409;32;34330;-86
2022/12/14 01:13:31;;;;;;;;;;;;;;;-0.29;62.96;99659.72;4404473;32;34114;-86
2022/12/14 01:16:07;;;;;;;;;;;;;;;-0.27;63.29;99653.66;4389110;32;32571;-86
2022/12/14 01:18:36;;;;;;;;;;;;;;;-0.29;63.15;99650.19;4400092;32;33955;-85
2022/12/14 01:21:08;;;;;;;;;;;;;;;-0.46;63.90;99666.69;4386405;32;33008;-87
2022/12/14 01:23:36;;;;;;;;;;;;;;;-0.63;64.81;99669.28;4386199;32;33932;-86
2022/12/14 01:26:03;;;;;;;;;;;;;;;-0.75;65.00;99664.97;4397782;32;33363;-84
2022/12/14 01:28:31;;;;;;;;;;;;;;;-0.35;63.85;99665.78;4407017;32;33871;-85
2022/12/14 01:31:13;;;;;;;;;;;;;;;-0.71;64.69;99665.81;4387871;32;33784;-85
2022/12/14 01:33:41;;;;;;;;;;;;;;;-0.43;63.87;99671.84;4399698;32;33065;-85
2022/12/14 01:36:10;;;;;;;;;;;;;;;-0.31;63.75;99658.87;4389328;32;32172;-84
2022/12/14 01:38:38;;;;;;;;;;;;;;;-0.22;62.71;99655.38;4394167;32;32025;-84
2022/12/14 01:41:06;;;;;;;;;;;;;;;-0.34;63.72;99656.25;4408804;32;34667;-84
2022/12/14 01:44:04;;;;;;;;;;;;;;;-0.37;63.53;99651.09;4401294;32;33688;-84
2022/12/14 01:46:31;;;;;;;;;;;;;;;-0.31;63.30;99651.94;4354357;32;32650;-84
2022/12/14 01:49:10;;;;;;;;;;;;;;;-0.21;62.33;99636.34;4408617;32;33736;-84
2022/12/14 01:51:38;;;;;;;1.80;1.70;;;;;;;-0.23;62.71;99640.69;4399136;32;34141;-84
2022/12/14 01:54:08;;;;;;;1.85;1.75;;;;;;;-0.38;62.69;99638.97;4398242;32;33395;-84
2022/12/14 01:56:37;;;;;;;2.65;2.55;;;;;;;-0.75;64.29;99643.37;4387350;32;32656;-84
2022/12/14 01:59:09;;;;;;;6.30;0.70;;;;;;;-0.47;63.46;99637.28;4403104;32;33042;-85
2022/12/14 02:01:38;;;;;;;;;;;;;;;-0.39;63.44;99638.13;4411717;32;33756;-85
2022/12/14 02:04:06;;;;;;;5.68;2.15;;;;;;;-0.76;64.60;99634.69;4400157;32;34914;-85
2022/12/14 02:06:36;;;;;;;0.95;0.60;;;;;;;-0.88;64.68;99627.81;4412869;32;34005;-85
2022/12/14 02:09:11;;;;;;;1.23;1.23;;;;;;;-0.70;64.16;99634.72;4412867;32;33282;-85
2022/12/14 02:11:43;;;;;;;1.50;1.45;;;;;;;-0.35;62.76;99632.06;4411524;32;34928;-84
2022/12/14 02:14:11;;;;;;;0.75;0.62;;;;;;;-0.53;63.49;99632.09;4401787;32;34480;-83
2022/12/14 02:16:40;;;;;;;0.77;0.77;;;;;;;-0.62;63.48;99624.31;4375010;32;33215;-84
2022/12/14 02:19:08;;;;;;;0.60;0.60;;;;;;;-0.80;63.94;99636.47;4410750;32;33779;-84
2022/12/14 02:22:29;;;;;;;0.77;0.77;;;;;;;-0.72;64.06;99628.66;4412302;32;34071;-83
2022/12/14 02:25:12;;;;;;;1.08;1.08;;;;;;;-1.22;66.09;99631.25;4372543;32;33954;-82
2022/12/14 02:28:03;;;;;;;0.00;0.00;;;;;;;-0.81;64.70;99634.72;4413334;32;33276;-84
2022/12/14 02:30:36;;;;;;;0.25;0.25;;;;;;;-1.19;65.65;99632.09;4412695;32;34013;-83
2022/12/14 02:33:14;;;;;;;2.45;2.35;;;;;;;-0.94;65.00;99633.00;4411368;32;33837;-83
2022/12/14 02:35:50;;;;;;;0.40;0.40;;;;;;;-1.08;65.71;99624.38;4400154;32;32503;-83
2022/12/14 02:38:52;;;;;;;0.95;0.95;;;;;;;-0.98;65.39;99631.28;4411033;32;32218;-83
2022/12/14 02:41:23;;;;;;;;;;;;;;;-0.77;64.70;99620.03;4395319;32;31957;-83
2022/12/14 02:44:30;;;;;;;3.10;2.80;;;;;;;-0.94;65.06;99620.03;4399454;32;33540;-84
2022/12/14 02:47:08;;;;;;;1.40;1.08;;;;;;;-1.07;65.61;99605.34;4402397;32;33709;-85
2022/12/14 02:49:51;;;;;;;0.50;0.50;;;;;;;-1.25;66.19;99605.34;4413645;32;33600;-85
2022/12/14 02:52:32;;;;;;;1.75;1.65;;;;;;;-0.83;64.77;99604.47;4387913;32;33005;-85
2022/12/14 02:55:07;;;;;;;0.80;0.80;;;;;;;-1.15;65.24;99597.56;4407377;32;33992;-84
2022/12/14 02:57:51;;;;;;;2.62;1.42;;;;;;;-1.09;66.08;99596.72;4401181;32;32721;-84
2022/12/14 03:00:19;;;;;;;2.37;1.12;;;;;;;-0.81;65.23;99597.56;4398801;32;33049;-85
2022/12/14 03:02:47;;;;;;;2.37;2.28;;;;;;;-1.45;66.56;99601.00;4411001;32;33573;-84
2022/12/14 03:05:16;;;;;;;3.42;3.22;;;;;;;-1.08;66.26;99595.84;4400625;32;33373;-85
2022/12/14 03:08:00;;;;;;;3.33;2.62;;;;;;;-1.17;66.61;99599.31;4411095;32;33773;-85
2022/12/14 03:10:45;;;;;;;0.10;0.10;;;;;;;-1.42;67.40;99603.63;4412561;32;33290;-84
2022/12/14 03:13:12;;;;;;;0.70;0.70;;;;;;;-1.14;66.80;99588.97;4398794;32;32732;-84
2022/12/14 03:15:42;;;;;;;1.20;1.20;;;;;;;-0.84;65.98;99582.87;4406088;32;33697;-84
2022/12/14 03:18:13;;;;;;;4.75;3.03;;;;;;;-0.39;64.41;99578.44;4410459;32;33171;-84
2022/12/14 03:20:43;;;;;;;1.20;1.15;;;;;;;-0.62;65.26;99580.25;4401193;32;33792;-85
2022/12/14 03:23:14;;;;;;;0.75;0.75;;;;;;;-0.91;66.22;99591.50;4410198;32;33802;-85
2022/12/14 03:25:42;;;;;;;;;;;;;;;-0.90;66.38;99602.75;4410951;32;33907;-85
2022/12/14 03:28:18;;;;;;;1.75;1.65;;;;;;;-0.67;65.75;99590.63;4412842;32;33084;-85
2022/12/14 03:30:53;;;;;;;0.65;0.65;;;;;;;-0.95;66.66;99592.41;4412649;32;33048;-84
2022/12/14 03:33:30;;;;;;;0.10;0.10;;;;;;;-0.84;66.37;99588.06;4401275;32;33645;-83
2022/12/14 03:36:16;;;;;;;0.00;0.00;;;;;;;-0.94;66.68;99578.56;4411600;32;33972;-85
2022/12/14 03:38:49;;;;;;;1.85;1.75;;;;;;;-1.37;68.37;99580.31;4406216;32;33435;-84
2022/12/14 03:41:34;;;;;;;0.45;0.45;;;;;;;-0.95;67.28;99569.09;4389368;32;33396;-87
2022/12/14 03:44:09;;;;;;;1.08;1.08;;;;;;;-1.12;68.24;99581.16;4412774;32;33861;-86
2022/12/14 03:47:00;;;;;;;1.50;1.40;;;;;;;-1.37;69.60;99576.00;4406055;32;34689;-83
2022/12/14 03:49:41;;;;;;;1.75;1.70;;;;;;;-1.15;68.61;99569.06;4392915;32;34310;-83
2022/12/14 03:52:22;;;;;;;1.65;1.55;;;;;;;-1.53;70.24;99566.47;4401216;32;31497;-85
2022/12/14 03:54:55;;;;;;;0.43;0.43;;;;;;;-0.89;68.34;99578.56;4407506;32;33427;-85
2022/12/14 03:57:33;;;;;;;0.73;0.73;;;;;;;-1.08;68.92;99568.22;4399241;32;33129;-85
2022/12/14 04:00:05;;;;;;;1.12;0.40;;;;;;;-1.03;68.90;99560.44;4406355;32;33311;-85
2022/12/14 04:02:57;;;;;;;1.50;0.70;;;;;;;-0.91;68.77;99560.41;4410960;32;33039;-85
2022/12/14 04:05:36;;;;;;;0.98;0.98;;;;;;;-0.70;68.03;99540.53;4407263;32;34257;-85
2022/12/14 04:08:11;;;;;;;3.55;3.22;;;;;;;-1.14;70.09;99551.78;4388109;32;32792;-85
2022/12/14 04:19:39;;;;;;;2.60;2.47;;;;;;;-0.63;67.87;99550.84;4410055;32;33213;-83
2022/12/14 04:22:12;;;;;;;1.45;1.45;;;;;;;-0.80;68.92;99545.72;4400555;32;33111;-83
2022/12/14 04:27:50;;;;;;;0.10;0.10;;;;;;;-0.41;67.62;99538.69;4399723;32;33452;-82
2022/12/14 04:30:18;;;;;;;1.92;1.80;;;;;;;-0.55;67.94;99528.37;4408327;32;32814;-85
2022/12/14 04:32:54;;;;;;;0.20;0.20;;;;;;;-0.36;67.79;99517.94;4412438;32;33981;-86
2022/12/14 04:35:27;;;;;;;22.70;3.33;;;;;;;-0.39;67.61;99507.56;4398733;32;31938;-86
2022/12/14 04:38:03;;;;;;;1.12;1.08;;;;;;;-0.40;68.01;99509.28;4398631;32;33525;-84
2022/12/14 04:40:48;;;;;;;2.55;1.23;;;;;;;-0.11;67.12;99498.75;4412044;32;34006;-84
2022/12/14 04:43:20;;;;;;;2.08;1.58;;;;;;;-0.20;67.40;99497.94;4411142;32;33379;-84
2022/12/14 04:45:53;;;;;;;0.45;0.45;;;;;;;-0.49;68.50;99498.94;4397620;32;31554;-83
2022/12/14 04:48:40;;;;;;;1.67;1.60;;;;;;;-0.34;67.79;99485.91;4408637;32;33519;-83
2022/12/14 04:51:17;;;;;;;1.00;1.00;;;;;;;-0.21;67.40;99483.25;4406378;32;34039;-83
2022/12/14 04:53:49;;;;;;;3.92;3.60;;;;;;;-0.32;67.97;99486.78;4410430;32;33680;-83
2022/12/14 04:56:32;;;;;;;0.57;0.40;;;;;;;-0.45;68.71;99487.69;4411503;32;33231;-83
2022/12/14 04:59:00;;;;;;;2.50;2.37;;;;;;;-0.65;68.64;99492.97;4409647;32;34573;-83
2022/12/14 05:01:51;;;;;;;6.43;2.42;;;;;;;-0.30;67.59;99495.41;4410695;32;33959;-83
2022/12/14 05:04:53;;;;;;;1.00;1.00;;;;;;;-0.37;67.87;99485.94;4410149;32;34450;-83
2022/12/14 05:08:01;;;;;;;1.55;1.40;;;;;;;-0.15;67.53;99485.81;4412227;32;32770;-83
2022/12/14 05:10:51;;;;;;;0.10;0.10;;;;;;;-0.36;67.75;99498.03;4388113;32;33045;-83
2022/12/14 05:13:29;;;;;;;1.35;1.35;;;;;;;-0.74;68.86;99512.87;4412143;32;34066;-84
2022/12/14 05:15:58;;;;;;;7.22;2.25;;;;;;;-0.68;69.28;99511.13;4405650;32;32395;-83
2022/12/14 05:18:26;;;;;;;1.25;1.23;;;;;;;-0.35;67.70;99504.94;4407479;32;33376;-83
2022/12/14 05:20:54;;;;;;;1.67;1.35;;;;;;;-0.44;68.18;99520.53;4408859;32;32349;-84
2022/12/14 05:23:27;;;;;;;0.35;0.35;;;;;;;0.11;66.56;99509.03;4394638;32;33532;-82
2022/12/14 05:25:57;;;;;;;2.42;1.55;;;;;;;-0.03;66.51;99498.72;4388875;32;33489;-84
2022/12/14 05:28:26;;;;;;;0.20;0.20;;;;;;;-0.10;66.59;99497.03;4411874;32;33619;-86
2022/12/14 05:30:54;;;;;;;0.10;0.10;;;;;;;-0.51;67.77;99503.28;4410578;32;33863;-86
2022/12/14 05:33:21;;;;;;;0.65;0.65;;;;;;;-0.55;68.03;99494.66;4401185;32;32855;-86
2022/12/14 05:35:50;;;;;;;0.80;0.45;;;;;;;-0.73;68.64;99491.25;4411133;32;33436;-86
2022/12/14 05:38:18;;;;;;;0.95;0.95;;;;;;;-0.97;69.48;99490.44;4410821;32;32246;-84
2022/12/14 05:40:47;;;;;;;0.30;0.30;;;;;;;-0.74;69.04;99482.63;4409566;32;34538;-84
2022/12/14 05:43:15;;;;;;;1.73;1.70;;;;;;;-0.13;66.78;99484.09;4406731;32;34391;-84
2022/12/14 05:45:47;;;;;;;1.42;1.33;;;;;;;-0.12;66.20;99480.63;4409440;32;34084;-84
2022/12/14 05:48:16;;;;;;;0.10;0.10;;;;;;;-0.26;66.61;99486.75;4413494;32;33090;-83
2022/12/14 05:50:45;;;;;;;4.65;1.85;;;;;;;-0.36;66.61;99486.78;4410669;32;32703;-83
2022/12/14 05:53:13;;;;;;;2.37;2.28;;;;;;;-0.51;67.01;99492.91;4411249;32;33862;-84
2022/12/14 05:55:48;;;;;;;4.87;2.42;;;;;;;0.02;65.41;99484.00;4411244;32;33290;-84
2022/12/14 05:58:17;;;;;;;1.65;1.55;;;;;;;-0.32;66.32;99480.72;4405811;32;34034;-84
2022/12/14 06:00:45;;;;;;;3.70;2.80;;;;;;;-0.09;65.97;99465.03;4394728;32;33249;-85
2022/12/14 06:03:15;;;;;;;0.85;0.85;;;;;;;0.11;65.13;99452.78;4396748;32;35071;-84
2022/12/14 06:05:44;;;;;;;0.52;0.52;;;;;;;-0.34;66.32;99447.00;4406546;32;33228;-84
2022/12/14 06:08:14;;;;;;;1.65;1.30;;;;;;;-0.23;65.93;99446.09;4408204;32;31869;-84
2022/12/14 06:13:18;;;;;;;0.95;0.95;;;;;;;-0.24;65.71;99436.56;4411598;32;34352;-84
2022/12/14 06:15:48;;;;;;;0.93;0.93;;;;;;;-0.41;65.91;99421.97;4397689;32;36422;-85
2022/12/14 06:18:22;;;;;;;0.50;0.47;;;;;;;-0.54;67.06;99433.28;4397582;32;32873;-83
2022/12/14 06:20:51;;;;;;;0.30;0.30;;;;;;;-0.46;66.04;99449.66;4410794;32;33475;-83
2022/12/14 06:26:04;;;;;;;0.20;0.20;;;;;;;-0.16;65.15;99447.75;4396086;32;32278;-83
2022/12/14 06:28:36;;;;;;;0.80;0.80;;;;;;;-0.42;66.54;99451.38;4406546;32;33123;-83
2022/12/14 06:31:06;;;;;;;0.10;0.10;;;;;;;-0.45;66.47;99466.94;4393587;32;33484;-83
2022/12/14 06:33:37;;;;;;;1.87;1.70;;;;;;;-0.06;65.35;99465.00;4407819;32;34470;-83
2022/12/14 06:36:06;;;;;;;1.67;1.58;;;;;;;-0.46;66.73;99460.03;4394524;32;33914;-83
2022/12/14 06:38:34;;;;;;;8.00;3.35;;;;;;;-0.33;65.83;99438.38;4405328;32;32597;-83
2022/12/14 06:41:07;;;;;;;0.57;0.57;;;;;;;-0.17;65.27;99435.66;4406913;32;33269;-83
2022/12/14 06:43:35;;;;;;;0.62;0.62;;;;;;;0.36;63.60;99455.19;4396854;32;32002;-83
2022/12/14 06:46:10;;;;;;;0.85;0.85;;;;;;;0.09;64.08;99454.50;4409968;32;34139;-83
2022/12/14 06:48:51;;;;;;;1.37;1.33;;;;;;;-0.03;65.07;99454.59;4415772;32;32559;-84
2022/12/14 06:51:22;;;;;;;1.70;1.20;;;;;;;-0.44;66.49;99453.09;4411136;32;32999;-83
2022/12/14 06:53:54;;;;;;;1.90;1.75;;;;;;;-0.42;66.08;99455.72;4412087;32;34492;-86
2022/12/14 06:56:26;;;;;;;1.42;1.08;;;;;;;-0.37;66.65;99451.34;4402226;32;32438;-85
2022/12/14 06:59:01;;;;;;;2.00;0.90;;;;;;;0.11;64.59;99452.78;4412071;32;34106;-85
2022/12/14 07:01:32;;;;;;;0.65;0.65;;;;;;;-0.14;64.91;99448.59;4412111;32;34609;-86
2022/12/14 07:04:00;;;;;;;0.08;0.08;;;;;;;-0.35;65.59;99442.69;4407805;32;32440;-86
2022/12/14 07:06:32;;;;;;;0.30;0.30;;;;;;;-0.11;64.49;99433.03;4412184;32;34110;-85
2022/12/14 07:09:04;;;;;;;2.25;2.08;;;;;;;-0.44;65.99;99423.72;4398943;32;33392;-86
2022/12/14 07:11:36;;;;;;;0.20;0.20;;;;;;;-0.17;64.29;99427.88;4411671;32;32688;-86
2022/12/14 07:14:15;;;;;;;0.73;0.73;;;;;;;-0.33;65.09;99427.97;4411521;32;33623;-86
2022/12/14 07:16:46;;;;;;;0.30;0.30;;;;;;;-0.31;65.12;99443.53;4409830;32;33566;-86
2022/12/14 07:19:18;;;;;;;0.47;0.47;;;;;;;-0.59;65.40;99432.44;4399799;32;32072;-86
2022/12/14 07:21:47;;;;;;;0.32;0.32;;;;;;;-0.11;64.74;99430.44;4413884;32;33427;-86
2022/12/14 07:24:22;;;;;;;0.00;0.00;;;;;;;-0.44;65.71;99421.97;4400090;32;32834;-86
2022/12/14 07:26:52;;;;;;;1.05;1.05;;;;;;;-0.45;65.59;99425.44;4413636;32;33645;-82
2022/12/14 07:29:21;;;;;;;0.43;0.43;;;;;;;-0.82;66.82;99419.56;4407358;32;33408;-82
2022/12/14 07:31:57;;;;;;;0.03;0.03;;;;;;;-0.48;65.92;99416.81;4393517;32;32880;-83
2022/12/14 07:34:25;;;;;;;1.60;1.48;;;;;;;-0.87;67.44;99417.00;4405672;32;33444;-83
2022/12/14 07:36:54;;;;;;;1.10;1.02;;;;;;;-0.32;65.91;99414.13;4403723;32;32870;-83
2022/12/14 07:39:26;;;;;;;1.67;1.27;;;;;;;-0.45;65.98;99419.41;4396036;32;34049;-83
2022/12/14 07:41:55;;;;;;;0.73;0.73;;;;;;;-0.01;64.62;99422.56;4400076;32;33655;-83
2022/12/14 07:44:27;;;;;;;;;;;;;;;-0.52;66.09;99439.34;4408437;32;33013;-83
2022/12/14 07:46:55;;;;;;;0.75;0.75;;;;;;;-0.55;66.97;99432.41;4391694;32;33043;-83
2022/12/14 07:49:26;;;;;;;0.70;0.70;;;;;;;-0.16;65.32;99440.84;4407163;32;32779;-83
2022/12/14 07:51:54;;;;;;;1.02;0.93;;;;;;;-0.41;65.85;99442.72;4405359;32;32628;-83
2022/12/14 07:54:25;;;;;;;0.03;0.03;;;;;;;0.12;64.33;99443.25;4398172;32;33144;-83
2022/12/14 07:56:55;;;;;;;1.40;1.33;;;;;;;-0.07;64.99;99442.53;4405630;32;34122;-84
2022/12/14 07:59:28;;;;;;;0.95;0.95;;;;;;;-0.42;65.76;99450.53;4406800;32;32455;-84
2022/12/14 08:01:56;;;;;;;1.25;1.25;;;;;;;-0.30;65.87;99453.03;4404429;32;33539;-83
2022/12/14 08:04:26;;;;;;;2.65;2.53;;;;;;;-0.04;64.59;99447.69;4404965;32;34482;-83
2022/12/14 08:06:56;;;;;;;0.62;0.62;;;;;;;-0.33;65.13;99451.34;4381051;32;32969;-83
2022/12/14 08:09:30;;;;;;;0.65;0.65;;;;;;;-0.47;66.32;99453.13;4396592;32;31884;-83
2022/12/14 08:12:00;;;;;;;0.65;0.65;;;;;;;-0.10;65.03;99437.34;4406459;32;33809;-84
2022/12/14 08:14:31;;;;;;;3.50;3.17;;;;;;;0.36;63.72;99447.41;4405164;32;34649;-83
2022/12/14 08:17:06;;;;;;;0.10;0.10;;;;;;;0.24;63.89;99433.66;4397368;32;33124;-84
2022/12/14 08:19:36;;;;;;;1.08;1.08;;;;;;;0.27;63.96;99426.69;4387607;32;33346;-84
2022/12/14 08:22:05;;;;;;;3.65;2.97;;;;;;;0.53;63.81;99422.16;4406265;32;34000;-84
2022/12/14 08:24:33;;;;;;;0.98;0.98;;;;;;;0.32;64.51;99432.72;4406358;32;34195;-84
2022/12/14 08:27:09;;;;;;;1.25;1.20;;;;;;;0.24;64.49;99443.19;4407173;32;33566;-84
2022/12/14 08:29:37;;;;;;;0.55;0.55;;;;;;;0.65;63.02;99448.00;4395930;32;34069;-89
2022/12/14 08:32:07;;;;;;;0.00;0.00;;;;;;;0.66;62.37;99441.06;4404783;32;34132;-87
2022/12/14 08:34:37;;;;;;;0.90;0.90;;;;;;;0.99;61.56;99429.47;4408989;32;33347;-86
2022/12/14 08:37:09;;;;;;;0.43;0.43;;;;;;;0.59;62.85;99434.22;4394752;32;33223;-86
2022/12/14 08:39:39;;;;;;;0.32;0.32;;;;;;;0.57;62.86;99421.25;4394582;32;32796;-86
2022/12/14 08:42:10;;;;;;;1.67;1.58;;;;;;;-0.05;65.09;99425.19;4382882;32;34037;-86
2022/12/14 08:44:38;;;;;;;2.33;1.67;;;;;;;0.22;63.69;99413.75;4396158;32;33820;-84
2022/12/14 08:47:09;;;;;;;0.65;0.65;;;;;;;0.30;63.45;99413.69;4406650;32;34375;-81
2022/12/14 08:49:38;;;;;;;2.12;2.03;;;;;;;0.24;63.60;99410.28;4406757;32;32476;-84
2022/12/14 08:52:06;;;;;;;0.55;0.55;;;;;;;0.43;62.65;99413.59;4395017;32;32273;-85
2022/12/14 08:54:37;;;;;;;1.73;1.62;;;;;;;-0.30;64.20;99402.00;4404827;32;33474;-84
2022/12/14 08:57:07;;;;;;;0.30;0.30;;;;;;;-0.06;63.82;99397.53;4407282;32;33655;-85
2022/12/14 08:59:36;;;;;;;0.88;0.88;;;;;;;-0.23;64.63;99399.41;4396492;32;34145;-86
2022/12/14 09:02:26;;;;;;;1.40;1.35;;;;;;;-0.21;64.50;99395.03;4408376;32;32463;-86
2022/12/14 09:04:56;;;;;;;0.50;0.50;;;;;;;0.37;62.96;99391.97;4394955;32;32777;-86
2022/12/14 09:07:24;;;;;;;2.75;2.55;;;;;;;0.60;62.40;99403.00;4399419;32;34918;-86
2022/12/14 09:09:54;;;;;;;0.65;0.65;;;;;;;0.60;62.18;99392.63;4393600;32;33304;-86
2022/12/14 09:12:24;;;;;;;1.92;1.73;;;;;;;-0.23;64.51;99399.41;4403614;32;33751;-86
2022/12/14 09:14:54;;;;;;;;;;;;;;;-0.07;64.38;99403.59;4394152;32;34246;-86
2022/12/14 09:17:29;;;;;;;4.28;1.75;;;;;;;0.59;62.44;99396.09;4392223;32;34204;-86
2022/12/14 09:19:58;;;;;;;0.50;0.50;;;;;;;0.47;62.47;99393.59;4393818;32;33394;-86
2022/12/14 09:22:26;;;;;;;0.50;0.40;;;;;;;0.15;63.13;99397.38;4394750;32;34744;-86
2022/12/14 09:24:58;;;;;;;0.60;0.60;;;;;;;0.23;63.07;99400.75;4373587;32;33400;-86
2022/12/14 09:27:29;;;;;;;0.00;0.00;;;;;;;0.50;62.07;99398.78;4385701;32;32429;-86
2022/12/14 09:29:57;;;;;;;1.20;1.12;;;;;;;0.48;62.46;99390.16;4385984;32;33644;-86
2022/12/14 09:32:28;;;;;;;0.52;0.52;;;;;;;0.67;62.26;99381.31;4384075;32;33275;-86
2022/12/14 09:34:58;;;;;;;0.30;0.30;;;;;;;0.75;61.62;99383.81;4373641;32;35022;-87
2022/12/14 09:37:27;;;;;;;3.28;3.03;;;;;;;0.46;62.59;99377.16;4383848;32;32761;-86
2022/12/14 09:39:59;;;;;;;2.47;2.37;;;;;;;0.71;61.83;99377.81;4385857;32;32696;-86
2022/12/14 09:42:47;;;;;;;0.62;0.62;;;;;;;0.64;61.70;99373.53;4384339;32;32680;-86
2022/12/14 09:45:24;;;;;;;1.15;1.05;;;;;;;0.33;62.50;99370.34;4386157;32;34492;-86
2022/12/14 09:48:05;;;;;;;0.40;0.40;;;;;;;0.30;62.77;99364.34;4376129;32;33600;-87
2022/12/14 09:50:36;;;;;;;0.20;0.20;;;;;;;0.44;62.83;99357.28;4384724;32;32720;-85
2022/12/14 09:53:07;;;;;;;3.75;2.58;;;;;;;0.65;62.35;99333.66;4386676;32;32488;-83
2022/12/14 09:55:45;;;;;;;1.67;0.93;;;;;;;0.85;61.41;99333.44;4384391;32;33021;-86
2022/12/14 09:58:18;;;;;;;0.10;0.10;;;;;;;0.82;61.60;99324.84;4384422;32;32758;-86
2022/12/14 10:01:11;;;;;;;3.53;3.22;;;;;;;0.57;62.43;99329.44;4385298;32;34155;-85
2022/12/14 10:04:04;;;;;;;1.27;1.23;;;;;;;0.75;61.27;99318.84;4389548;32;34530;-85
2022/12/14 10:06:55;;;;;;;0.30;0.30;;;;;;;0.09;63.38;99329.03;4388802;32;34238;-86
2022/12/14 10:12:34;;;;;;;1.40;1.30;;;;;;;0.57;61.64;99327.72;4382540;32;33193;-86
2022/12/14 10:15:51;;;;;;;0.82;0.82;;;;;;;0.50;62.08;99326.06;4385450;32;34209;-85
2022/12/14 10:18:51;;;;;;;3.10;1.95;;;;;;;0.49;62.53;99334.72;4390120;32;33285;-86
2022/12/14 10:21:56;;;;;;;0.60;0.60;;;;;;;0.81;61.28;99323.09;4383883;32;31427;-86
2022/12/14 10:24:36;;;;;;;1.62;1.52;;;;;;;1.12;60.82;99315.78;4397888;32;33122;-85
2022/12/14 10:27:49;;;;;;;0.45;0.45;;;;;;;0.87;61.21;99297.91;4388910;32;34201;-85
2022/12/14 10:30:42;;;;;;;0.30;0.30;;;;;;;1.00;61.32;99294.28;4388766;32;32941;-85
2022/12/14 10:33:29;;;;;;;0.20;0.20;;;;;;;1.26;60.31;99299.09;4389994;32;34005;-86
2022/12/14 10:36:27;;;;;;;0.00;0.00;;;;;;;1.00;61.09;99294.28;4391019;32;33290;-85
2022/12/14 10:38:58;;;;;;;4.53;2.20;;;;;;;1.38;59.77;99286.81;4390429;32;33693;-85
2022/12/14 10:41:35;;;;;;;5.22;1.85;;;;;;;1.11;59.94;99280.28;4391589;32;34485;-86
2022/12/14 10:44:32;;;;;;;0.82;0.82;;;;;;;1.09;60.52;99274.22;4388353;32;33883;-85
2022/12/14 10:47:21;;;;;;;2.17;2.08;;;;;;;0.90;61.32;99263.19;4387234;32;33355;-85
2022/12/14 10:49:55;;;;;;;0.68;0.68;;;;;;;1.08;60.67;99268.16;4387125;32;33579;-85
2022/12/14 10:52:30;;;;;;;1.87;1.77;;;;;;;0.89;61.66;99261.50;4380549;32;32969;-85
2022/12/14 10:55:25;;;;;;;0.50;0.50;;;;;;;0.99;60.65;99263.94;4389048;32;34005;-86
2022/12/14 10:57:55;;;;;;;0.82;0.82;;;;;;;1.31;60.42;99259.19;4374195;32;32655;-85
2022/12/14 11:00:24;;;;;;;0.47;0.47;;;;;;;0.82;61.27;99255.53;4388438;32;31816;-86
2022/12/14 11:02:55;;;;;;;1.65;1.55;;;;;;;0.90;61.11;99263.19;4387267;32;33868;-86
2022/12/14 11:05:38;;;;;;;0.10;0.10;;;;;;;1.58;59.53;99253.56;4388030;32;33863;-85
2022/12/14 11:08:08;;;;;;;0.70;0.70;;;;;;;0.96;60.44;99256.19;4375616;32;32597;-86
2022/12/14 11:10:38;;;;;;;0.77;0.77;;;;;;;1.58;58.77;99263.09;4388374;32;34005;-86
2022/12/14 11:13:12;;;;;;;3.33;0.80;;;;;;;0.85;59.94;99265.00;4387201;32;34099;-85
2022/12/14 11:18:29;;;;;;;3.10;2.47;;;;;;;1.10;59.40;99256.00;4388635;32;33415;-86
2022/12/14 11:21:02;;;;;;;1.95;1.02;;;;;;;1.27;59.00;99246.19;4386698;32;34510;-86
2022/12/14 11:23:37;;;;;;;1.27;1.23;;;;;;;1.26;59.38;99236.69;4395926;32;34284;-86
2022/12/14 11:26:14;;;;;;;0.95;0.90;;;;;;;1.15;59.56;99241.19;4394091;32;33291;-85
2022/12/14 11:28:49;;;;;;;0.25;0.25;;;;;;;1.33;59.39;99231.37;4403834;32;33944;-85
2022/12/14 11:31:24;;;;;;;0.45;0.45;;;;;;;1.60;58.55;99230.94;4400517;32;33219;-85
2022/12/14 11:33:55;;;;;;;1.02;1.02;;;;;;;1.52;58.77;99223.28;4408955;32;33203;-85
2022/12/14 11:36:36;;;;;;;0.40;0.40;;;;;;;1.60;58.35;99217.94;4405043;32;34531;-86
2022/12/14 11:39:22;;;;;;;0.43;0.43;;;;;;;1.58;57.98;99209.31;4409180;32;32421;-86
2022/12/14 11:41:57;;;;;;;0.10;0.10;;;;;;;1.61;57.77;99209.25;4397296;32;31760;-85
2022/12/14 11:44:37;;;;;;;1.08;0.98;;;;;;;1.52;57.78;99202.47;4407652;32;32375;-86
2022/12/14 11:47:22;;;;;;;3.90;1.85;;;;;;;1.46;57.97;99202.56;4385418;32;32749;-85
2022/12/14 11:49:53;;;;;;;0.65;0.65;;;;;;;1.33;58.41;99201.06;4396927;32;32603;-86
2022/12/14 11:52:40;;;;;;;3.65;3.12;;;;;;;1.19;59.27;99193.47;4407365;32;33228;-86
2022/12/14 11:55:20;;;;;;;1.00;0.82;;;;;;;1.34;59.38;99186.31;4409155;32;34194;-86
2022/12/14 11:57:56;;;;;;;0.00;0.00;;;;;;;1.32;59.33;99180.25;4400864;32;33270;-85
2022/12/14 12:00:29;;;;;;;0.13;0.13;;;;;;;1.94;57.80;99168.72;4403988;32;33975;-85
2022/12/14 12:03:12;;;;;;;0.17;0.17;;;;;;;1.96;57.12;99163.53;4390906;32;35802;-90
2022/12/14 12:05:46;;;;;;;0.10;0.10;;;;;;;1.73;58.03;99162.19;4402015;32;33755;-83
2022/12/14 12:08:23;;;;;;;1.37;1.35;;;;;;;1.98;57.37;99156.53;4398068;32;33527;-84
2022/12/14 12:10:56;;;;;;;0.47;0.47;;;;;;;2.00;57.57;99162.56;4407128;32;32998;-84
2022/12/14 12:13:36;;;;;;;1.27;1.27;;;;;;;2.19;56.60;99158.72;4401900;32;34193;-84
2022/12/14 12:16:05;;;;;;;0.50;0.50;;;;;;;1.85;57.35;99165.44;4403954;32;32442;-83
2022/12/14 12:18:47;;;;;;;1.48;1.37;;;;;;;2.10;57.02;99143.28;4383339;32;34621;-83
2022/12/14 12:21:21;;;;;;;0.15;0.15;;;;;;;2.14;57.19;99139.72;4394985;32;34284;-85
2022/12/14 12:23:58;;;;;;;1.12;1.12;;;;;;;1.81;57.83;99135.19;4397328;32;32287;-85
2022/12/14 12:26:29;;;;;;;2.05;1.70;;;;;;;1.69;57.47;99138.84;4377996;32;33333;-85
2022/12/14 12:29:13;;;;;;;;;;;;;;;1.99;56.93;99132.19;4374335;32;32898;-85
2022/12/14 12:32:14;;;;;;;0.00;0.00;;;;;;;2.10;56.71;99134.63;4377254;32;33627;-85
2022/12/14 12:34:51;;;;;;;0.20;0.20;;;;;;;1.53;58.37;99135.69;4373888;32;33823;-85
2022/12/14 12:37:56;;;;;;;0.90;0.90;;;;;;;1.48;58.99;99119.31;4386583;32;33989;-85
2022/12/14 12:40:34;;;;;;;0.00;0.00;;;;;;;1.43;59.49;99119.38;4371405;32;33223;-85
2022/12/14 12:43:37;;;;;;;0.60;0.60;;;;;;;1.61;58.14;99109.50;4370870;32;34823;-84
2022/12/14 12:46:28;;;;;;;0.82;0.80;;;;;;;1.78;57.96;99110.06;4389109;32;33813;-84
2022/12/14 12:49:00;;;;;;;1.48;1.45;;;;;;;2.01;56.83;99102.66;4388176;32;34348;-85